Time;durP1;ratioP1;P1;durP2;ratioP2;P2;SDS_P1;SDS_P2;PMS_P1;PMS_P2;Temp;Humidity;BMP_temperature;BMP_pressure;BME280_temperature;BME280_humidity;BME280_pressure;Samples;Min_cycle;Max_cycle;Signal;HPM_P1;HPM_P2
2023/07/24 00:00:13;;;;;;;13.33;12.53;;;20.30;99.90;;;;;;5079796;28;20301;-51
2023/07/24 00:02:38;;;;;;;13.10;12.37;;;20.30;99.90;;;;;;5077813;28;20461;-53
2023/07/24 00:05:04;;;;;;;13.13;12.43;;;20.30;99.90;;;;;;5077062;28;20552;-48
2023/07/24 00:07:30;;;;;;;13.00;12.27;;;20.20;99.90;;;;;;5063474;28;20261;-51
2023/07/24 00:09:55;;;;;;;13.20;12.40;;;20.20;99.90;;;;;;5066199;28;20269;-46
2023/07/24 00:12:22;;;;;;;13.10;12.40;;;20.10;99.90;;;;;;5072246;28;20192;-53
2023/07/24 00:14:48;;;;;;;12.80;12.10;;;20.10;99.90;;;;;;5073836;28;20192;-50
2023/07/24 00:17:13;;;;;;;13.83;13.03;;;20.00;99.90;;;;;;5079825;28;20435;-49
2023/07/24 00:19:39;;;;;;;13.33;12.53;;;20.00;99.90;;;;;;5065466;28;20690;-49
2023/07/24 00:22:05;;;;;;;13.10;12.40;;;20.00;99.90;;;;;;5075923;28;20184;-55
2023/07/24 00:24:31;;;;;;;13.50;12.50;;;19.90;99.90;;;;;;5074339;28;20228;-54
2023/07/24 00:26:57;;;;;;;13.70;12.90;;;19.90;99.90;;;;;;5076823;28;20504;-50
2023/07/24 00:29:23;;;;;;;13.67;12.87;;;19.80;99.90;;;;;;5074025;28;20422;-47
2023/07/24 00:31:49;;;;;;;12.77;12.07;;;19.80;99.90;;;;;;5079585;28;20613;-53
2023/07/24 00:34:14;;;;;;;13.07;12.37;;;19.70;99.90;;;;;;5077530;28;20275;-49
2023/07/24 00:36:40;;;;;;;13.03;12.30;;;19.70;1.00;;;;;;5064182;28;21538;-49
2023/07/24 00:39:06;;;;;;;12.90;12.10;;;19.70;1.00;;;;;;5061695;28;20659;-50
2023/07/24 00:41:31;;;;;;;13.17;12.40;;;19.70;1.00;;;;;;5075193;28;20184;-52
2023/07/24 00:43:57;;;;;;;13.30;12.50;;;19.70;1.00;;;;;;5060059;28;20190;-51
2023/07/24 00:46:24;;;;;;;13.63;12.67;;;19.70;1.00;;;;;;5063888;28;20188;-48
2023/07/24 00:48:50;;;;;;;13.23;12.43;;;19.60;1.00;;;;;;5079330;28;20188;-53
2023/07/24 00:51:16;;;;;;;12.27;11.57;;;19.70;1.00;;;;;;5078999;28;20419;-47
2023/07/24 00:53:42;;;;;;;12.83;12.13;;;19.70;1.00;;;;;;5075679;28;20778;-52
2023/07/24 00:56:08;;;;;;;13.23;12.53;;;19.80;1.00;;;;;;5079276;28;20433;-52
2023/07/24 00:58:36;;;;;;;13.50;12.70;;;19.80;1.00;;;;;;5069767;28;20670;-55
2023/07/24 01:01:03;;;;;;;14.30;13.40;;;19.80;1.00;;;;;;5073918;28;20456;-49
2023/07/24 01:03:34;;;;;;;12.17;11.57;;;19.80;1.00;;;;;;5069984;28;20441;-51
2023/07/24 01:06:02;;;;;;;12.93;12.13;;;19.80;1.00;;;;;;5072390;28;20432;-42
2023/07/24 01:08:28;;;;;;;12.70;12.00;;;19.80;1.00;;;;;;5061577;28;20494;-46
2023/07/24 01:10:58;;;;;;;13.57;12.57;;;19.80;1.00;;;;;;5077472;28;20442;-45
2023/07/24 01:13:28;;;;;;;12.47;11.80;;;19.70;1.00;;;;;;5078255;28;20433;-46
2023/07/24 01:16:04;;;;;;;12.57;11.80;;;19.70;1.00;;;;;;5081123;28;20978;-44
2023/07/24 01:18:31;;;;;;;13.10;12.40;;;19.70;1.00;;;;;;5075750;28;20462;-43
2023/07/24 01:20:59;;;;;;;14.10;13.23;;;19.60;1.00;;;;;;5076689;28;20434;-40
2023/07/24 01:23:27;;;;;;;13.83;13.03;;;19.70;1.00;;;;;;5080827;28;20439;-41
2023/07/24 01:25:55;;;;;;;12.87;12.17;;;19.60;1.00;;;;;;5082941;28;20463;-41
2023/07/24 01:28:21;;;;;;;12.70;12.00;;;19.60;1.00;;;;;;5082840;28;20410;-51
2023/07/24 01:30:47;;;;;;;13.60;12.70;;;19.60;1.00;;;;;;5082364;28;20833;-50
2023/07/24 01:33:14;;;;;;;13.30;12.50;;;19.60;1.00;;;;;;5080955;28;20223;-53
2023/07/24 01:35:43;;;;;;;13.10;12.30;;;19.60;1.00;;;;;;5075627;28;20185;-50
2023/07/24 01:38:09;;;;;;;13.60;12.80;;;19.60;1.00;;;;;;5073685;28;20534;-47
2023/07/24 01:40:35;;;;;;;12.83;12.13;;;19.60;1.00;;;;;;5082774;28;20418;-49
2023/07/24 01:43:00;;;;;;;13.07;12.37;;;19.60;1.00;;;;;;5070612;28;20764;-52
2023/07/24 01:45:26;;;;;;;12.47;11.77;;;19.60;1.00;;;;;;5070096;28;20530;-52
2023/07/24 01:47:52;;;;;;;12.60;11.90;;;19.60;1.00;;;;;;5080944;28;20224;-52
2023/07/24 01:50:17;;;;;;;13.00;12.30;;;19.50;1.00;;;;;;5082405;28;20192;-42
2023/07/24 01:52:45;;;;;;;12.80;12.00;;;19.60;1.00;;;;;;5069782;28;20221;-42
2023/07/24 01:55:10;;;;;;;13.90;12.80;;;19.60;1.00;;;;;;5076718;28;20237;-41
2023/07/24 01:57:36;;;;;;;14.03;13.13;;;19.60;1.00;;;;;;5080774;28;20426;-45
2023/07/24 02:00:02;;;;;;;13.70;12.80;;;19.60;1.00;;;;;;5081540;28;20348;-42
2023/07/24 02:02:27;;;;;;;13.70;12.90;;;19.50;1.00;;;;;;5080191;28;20635;-43
2023/07/24 02:04:53;;;;;;;13.70;12.90;;;19.60;1.00;;;;;;5081976;28;20659;-45
2023/07/24 02:07:18;;;;;;;13.10;12.30;;;19.50;1.00;;;;;;5076527;28;20192;-42
2023/07/24 02:09:44;;;;;;;13.27;12.50;;;19.60;1.00;;;;;;5070863;28;20227;-47
2023/07/24 02:12:10;;;;;;;13.50;12.70;;;19.50;1.00;;;;;;5076303;28;20303;-43
2023/07/24 02:14:36;;;;;;;12.17;11.47;;;19.60;1.00;;;;;;5082006;28;20483;-45
2023/07/24 02:17:01;;;;;;;13.57;12.77;;;19.60;1.00;;;;;;5081703;28;20586;-44
2023/07/24 02:19:27;;;;;;;13.50;12.67;;;19.60;1.00;;;;;;5063242;28;20201;-44
2023/07/24 02:21:52;;;;;;;13.33;12.43;;;19.60;1.00;;;;;;5080161;28;20669;-45
2023/07/24 02:24:18;;;;;;;12.77;12.07;;;19.60;1.00;;;;;;5074490;28;20242;-43
2023/07/24 02:26:43;;;;;;;13.50;12.70;;;19.50;1.00;;;;;;5079042;28;20180;-40
2023/07/24 02:29:09;;;;;;;13.20;12.50;;;19.50;1.00;;;;;;5069157;28;20611;-43
2023/07/24 02:31:35;;;;;;;14.03;13.23;;;19.50;1.00;;;;;;5080887;28;20214;-42
2023/07/24 02:34:00;;;;;;;13.57;12.70;;;19.40;1.00;;;;;;5079488;28;20188;-42
2023/07/24 02:36:26;;;;;;;12.70;12.00;;;19.40;1.00;;;;;;5074719;28;20591;-46
2023/07/24 02:38:51;;;;;;;13.60;12.80;;;19.40;1.00;;;;;;5074145;28;20205;-45
2023/07/24 02:41:17;;;;;;;12.73;11.93;;;19.30;1.00;;;;;;5081509;28;20546;-43
2023/07/24 02:43:43;;;;;;;13.50;12.70;;;19.30;1.00;;;;;;5068174;28;20231;-43
2023/07/24 02:46:08;;;;;;;12.70;12.00;;;19.30;1.00;;;;;;5073696;28;20703;-42
2023/07/24 02:48:34;;;;;;;13.63;12.63;;;19.20;1.00;;;;;;5081476;28;20184;-45
2023/07/24 02:51:00;;;;;;;13.30;12.50;;;19.30;1.00;;;;;;5080233;28;20197;-45
2023/07/24 02:53:26;;;;;;;13.03;12.33;;;19.30;1.00;;;;;;5076025;28;20933;-47
2023/07/24 02:55:51;;;;;;;13.33;12.53;;;19.30;1.00;;;;;;5074900;28;20524;-44
2023/07/24 02:58:17;;;;;;;14.17;12.90;;;19.30;1.00;;;;;;5073851;28;20211;-43
2023/07/24 03:00:42;;;;;;;14.33;13.53;;;19.30;1.00;;;;;;5078212;28;20187;-45
2023/07/24 03:03:08;;;;;;;13.67;12.87;;;19.30;1.00;;;;;;5069820;28;20185;-44
2023/07/24 03:05:37;;;;;;;13.40;12.60;;;19.30;1.00;;;;;;5078920;28;20176;-42
2023/07/24 03:08:03;;;;;;;13.33;12.53;;;19.30;1.00;;;;;;5064780;28;20196;-42
2023/07/24 03:10:28;;;;;;;14.07;13.27;;;19.30;1.00;;;;;;5079962;28;20841;-43
2023/07/24 03:12:54;;;;;;;13.73;12.93;;;19.30;1.00;;;;;;5067476;28;20655;-40
2023/07/24 03:15:20;;;;;;;13.80;13.00;;;19.30;1.00;;;;;;5079868;28;20187;-48
2023/07/24 03:17:45;;;;;;;13.23;12.33;;;19.30;1.00;;;;;;5072548;28;20185;-41
2023/07/24 03:20:15;;;;;;;12.70;12.00;;;19.40;1.00;;;;;;5067705;28;20191;-42
2023/07/24 03:22:41;;;;;;;13.07;12.27;;;19.40;1.00;;;;;;5078511;28;20465;-45
2023/07/24 03:25:08;;;;;;;14.10;13.30;;;19.40;1.00;;;;;;5064123;28;20459;-46
2023/07/24 03:27:33;;;;;;;13.33;12.53;;;19.50;1.00;;;;;;5074740;28;20419;-43
2023/07/24 03:29:59;;;;;;;12.90;12.20;;;19.50;1.00;;;;;;5080377;28;20442;-44
2023/07/24 03:32:24;;;;;;;13.20;12.40;;;19.50;1.00;;;;;;5078327;28;20185;-45
2023/07/24 03:34:50;;;;;;;13.53;12.73;;;19.50;1.00;;;;;;5077843;28;20553;-45
2023/07/24 03:37:15;;;;;;;13.60;12.80;;;19.50;1.00;;;;;;5078244;28;20184;-43
2023/07/24 03:39:41;;;;;;;13.17;12.13;;;19.50;1.00;;;;;;5079921;28;20282;-44
2023/07/24 03:42:10;;;;;;;12.67;11.90;;;19.60;1.00;;;;;;5077725;28;20221;-43
2023/07/24 03:44:35;;;;;;;13.03;12.13;;;19.60;1.00;;;;;;5079973;28;20229;-46
2023/07/24 03:47:01;;;;;;;13.03;12.27;;;19.60;1.00;;;;;;5074954;28;20411;-44
2023/07/24 03:49:26;;;;;;;13.47;12.67;;;19.60;1.00;;;;;;5080002;28;20354;-44
2023/07/24 03:51:52;;;;;;;13.20;12.40;;;19.60;1.00;;;;;;5070838;28;20316;-46
2023/07/24 03:54:18;;;;;;;13.10;12.30;;;19.70;1.00;;;;;;5076208;28;20187;-44
2023/07/24 03:56:43;;;;;;;13.27;12.47;;;19.70;1.00;;;;;;5080223;28;20185;-45
2023/07/24 03:59:09;;;;;;;12.70;12.00;;;19.80;1.00;;;;;;5080048;28;20220;-47
2023/07/24 04:01:34;;;;;;;13.97;12.97;;;19.80;1.00;;;;;;5082316;28;20184;-42
2023/07/24 04:04:00;;;;;;;13.33;12.53;;;19.80;1.00;;;;;;5078335;28;20195;-43
2023/07/24 04:06:25;;;;;;;12.63;11.93;;;19.90;1.00;;;;;;5074895;28;20201;-45
2023/07/24 04:08:54;;;;;;;12.97;12.17;;;19.90;1.00;;;;;;5077604;28;20272;-51
2023/07/24 04:11:20;;;;;;;12.63;11.90;;;19.90;1.00;;;;;;5078728;28;20180;-51
2023/07/24 04:13:45;;;;;;;12.17;11.37;;;19.90;1.00;;;;;;5077817;28;20831;-50
2023/07/24 04:16:11;;;;;;;12.73;12.03;;;19.90;1.00;;;;;;5079746;28;20195;-51
2023/07/24 04:18:36;;;;;;;12.87;12.13;;;19.90;1.00;;;;;;5070821;28;20585;-51
2023/07/24 04:21:02;;;;;;;12.20;11.53;;;20.00;1.00;;;;;;5072632;28;20522;-53
2023/07/24 04:23:28;;;;;;;12.00;11.17;;;20.00;1.00;;;;;;5078581;28;20176;-51
2023/07/24 04:25:53;;;;;;;12.43;11.73;;;20.00;1.00;;;;;;5073758;28;20231;-55
2023/07/24 04:28:19;;;;;;;12.40;11.70;;;20.00;1.00;;;;;;5064620;28;20272;-51
2023/07/24 04:30:45;;;;;;;12.43;11.73;;;20.00;1.00;;;;;;5061424;28;20297;-54
2023/07/24 04:33:11;;;;;;;13.30;12.40;;;20.10;1.00;;;;;;5065050;28;20541;-54
2023/07/24 04:35:37;;;;;;;12.23;11.53;;;20.10;1.00;;;;;;5074111;28;20188;-51
2023/07/24 04:38:02;;;;;;;12.27;11.37;;;20.20;1.00;;;;;;5069455;28;20281;-50
2023/07/24 04:40:28;;;;;;;12.37;11.67;;;20.20;1.00;;;;;;5073583;28;20188;-50
2023/07/24 04:42:53;;;;;;;11.40;10.70;;;20.20;1.00;;;;;;5073540;28;20215;-52
2023/07/24 04:45:20;;;;;;;13.00;12.20;;;20.20;1.00;;;;;;5061879;28;20212;-48
2023/07/24 04:47:46;;;;;;;12.67;11.77;;;20.30;1.00;;;;;;5060108;28;20211;-46
2023/07/24 04:50:11;;;;;;;11.93;11.23;;;20.30;1.00;;;;;;5060021;28;20443;-53
2023/07/24 04:52:37;;;;;;;12.73;12.03;;;20.40;1.00;;;;;;5071572;28;20211;-50
2023/07/24 04:55:03;;;;;;;12.73;12.03;;;20.50;1.00;;;;;;5076027;28;20219;-52
2023/07/24 04:57:28;;;;;;;13.23;12.43;;;20.60;1.00;;;;;;5079175;28;20615;-51
2023/07/24 04:59:54;;;;;;;13.30;12.50;;;20.60;1.00;;;;;;5079040;28;20211;-49
2023/07/24 05:02:19;;;;;;;12.60;11.90;;;20.60;1.00;;;;;;5063933;28;20271;-53
2023/07/24 05:04:45;;;;;;;12.03;11.23;;;20.70;1.00;;;;;;5072680;28;20589;-54
2023/07/24 05:07:11;;;;;;;13.17;12.40;;;20.70;1.00;;;;;;5079349;28;20597;-50
2023/07/24 05:09:36;;;;;;;13.57;12.77;;;20.80;1.00;;;;;;5065991;28;20269;-49
2023/07/24 05:12:02;;;;;;;13.03;12.23;;;20.90;1.00;;;;;;5066043;28;20208;-50
2023/07/24 05:14:27;;;;;;;12.27;11.67;;;21.00;1.00;;;;;;5072026;28;20364;-51
2023/07/24 05:16:53;;;;;;;12.90;12.10;;;21.10;1.00;;;;;;5078880;28;20614;-53
2023/07/24 05:19:19;;;;;;;12.23;11.53;;;21.10;1.00;;;;;;5066173;28;20217;-54
2023/07/24 05:21:44;;;;;;;12.70;11.90;;;21.20;1.00;;;;;;5065092;28;20185;-45
2023/07/24 05:24:10;;;;;;;12.90;12.10;;;21.40;1.00;;;;;;5078940;28;20222;-52
2023/07/24 05:26:35;;;;;;;12.53;11.83;;;21.50;1.00;;;;;;5077205;28;20211;-52
2023/07/24 05:29:01;;;;;;;12.47;11.67;;;21.60;1.00;;;;;;5077455;28;20193;-51
2023/07/24 05:31:26;;;;;;;13.47;12.67;;;21.80;1.00;;;;;;5078426;28;20272;-47
2023/07/24 05:33:52;;;;;;;12.53;11.83;;;22.00;1.00;;;;;;5078965;28;20193;-51
2023/07/24 05:36:18;;;;;;;13.17;12.30;;;22.00;1.00;;;;;;5078708;28;20189;-52
2023/07/24 05:38:43;;;;;;;12.70;11.97;;;22.10;1.00;;;;;;5078634;28;20193;-48
2023/07/24 05:41:09;;;;;;;13.70;12.90;;;22.20;99.90;;;;;;5078689;28;20196;-49
2023/07/24 05:43:34;;;;;;;13.67;12.87;;;22.20;99.90;;;;;;5074302;28;20211;-51
2023/07/24 05:46:00;;;;;;;13.00;12.20;;;22.30;99.90;;;;;;5078827;28;20185;-51
2023/07/24 05:48:25;;;;;;;12.47;11.77;;;22.40;99.90;;;;;;5078655;28;20189;-51
2023/07/24 05:50:51;;;;;;;13.23;12.43;;;22.50;99.90;;;;;;5071130;28;20532;-48
2023/07/24 05:53:17;;;;;;;12.70;12.00;;;22.60;99.90;;;;;;5072223;28;20267;-48
2023/07/24 05:55:43;;;;;;;11.90;11.20;;;22.70;99.90;;;;;;5077485;28;20654;-47
2023/07/24 05:58:09;;;;;;;13.67;12.60;;;22.70;99.90;;;;;;5078793;28;20539;-50
2023/07/24 06:00:36;;;;;;;12.47;11.67;;;22.70;99.90;;;;;;5078651;28;20181;-52
2023/07/24 06:03:02;;;;;;;13.63;12.90;;;22.60;99.90;;;;;;5067314;28;20463;-51
2023/07/24 06:05:28;;;;;;;12.47;11.67;;;22.70;99.90;;;;;;5075132;28;20438;-51
2023/07/24 06:07:54;;;;;;;12.53;11.83;;;22.80;99.90;;;;;;5064415;28;20411;-51
2023/07/24 06:10:19;;;;;;;13.03;12.17;;;22.90;99.90;;;;;;5081052;28;20173;-50
2023/07/24 06:12:45;;;;;;;12.27;11.57;;;22.90;99.90;;;;;;5082119;28;20176;-46
2023/07/24 06:15:10;;;;;;;12.63;11.90;;;22.90;99.90;;;;;;5081782;28;20184;-46
2023/07/24 06:17:36;;;;;;;12.97;12.20;;;22.90;99.90;;;;;;5082176;28;20267;-50
2023/07/24 06:20:02;;;;;;;12.50;11.80;;;22.80;99.90;;;;;;5068651;28;20674;-49
2023/07/24 06:22:27;;;;;;;12.63;11.73;;;22.80;99.90;;;;;;5081681;28;20590;-51
2023/07/24 06:24:53;;;;;;;12.30;11.50;;;22.90;99.90;;;;;;5081178;28;20319;-52
2023/07/24 06:27:18;;;;;;;12.47;11.70;;;22.90;99.90;;;;;;5081632;28;20177;-52
2023/07/24 06:29:44;;;;;;;13.00;12.20;;;23.10;99.90;;;;;;5081614;28;20191;-53
2023/07/24 06:32:10;;;;;;;11.40;10.70;;;23.10;99.90;;;;;;5081371;28;20191;-48
2023/07/24 06:34:35;;;;;;;13.10;12.20;;;23.30;99.90;;;;;;5081701;28;20241;-51
2023/07/24 06:37:01;;;;;;;12.73;11.93;;;23.40;99.90;;;;;;5067774;28;20274;-52
2023/07/24 06:39:28;;;;;;;12.97;12.07;;;23.60;99.90;;;;;;5081838;28;20212;-51
2023/07/24 06:41:54;;;;;;;12.30;11.40;;;23.80;99.90;;;;;;5077741;28;20217;-50
2023/07/24 06:44:21;;;;;;;13.23;12.40;;;23.90;99.90;;;;;;5078920;28;20829;-51
2023/07/24 06:46:46;;;;;;;12.20;11.40;;;24.00;99.90;;;;;;5080584;28;20634;-47
2023/07/24 06:49:12;;;;;;;12.97;12.27;;;24.10;99.90;;;;;;5079997;28;20426;-47
2023/07/24 06:51:38;;;;;;;12.80;11.83;;;24.10;99.90;;;;;;5081164;28;20188;-50
2023/07/24 06:54:05;;;;;;;12.80;12.10;;;24.20;99.90;;;;;;5072411;28;20177;-53
2023/07/24 06:56:32;;;;;;;11.90;11.20;;;24.30;99.90;;;;;;5079107;28;20496;-53
2023/07/24 06:58:57;;;;;;;12.57;11.70;;;24.40;99.90;;;;;;5080795;28;20824;-50
2023/07/24 07:01:23;;;;;;;13.10;12.30;;;24.60;99.90;;;;;;5080836;28;20429;-50
2023/07/24 07:03:50;;;;;;;13.00;12.20;;;24.90;99.90;;;;;;5080921;28;20318;-49
2023/07/24 07:06:16;;;;;;;11.60;11.00;;;25.00;99.90;;;;;;5070484;28;20512;-51
2023/07/24 07:08:42;;;;;;;12.50;11.70;;;25.30;99.90;;;;;;5059614;28;20469;-47
2023/07/24 07:11:07;;;;;;;11.97;11.20;;;25.50;99.90;;;;;;5075705;28;20547;-51
2023/07/24 07:13:33;;;;;;;12.83;12.13;;;25.80;99.90;;;;;;5080261;28;20188;-50
2023/07/24 07:15:59;;;;;;;12.60;11.80;;;26.00;99.90;;;;;;5080742;28;20713;-54
2023/07/24 07:18:24;;;;;;;12.43;11.63;;;26.30;99.90;;;;;;5070862;28;20212;-50
2023/07/24 07:20:51;;;;;;;13.57;12.77;;;26.60;99.90;;;;;;5078432;28;20533;-55
2023/07/24 07:23:17;;;;;;;12.70;11.90;;;26.80;99.90;;;;;;5080002;28;20253;-51
2023/07/24 07:25:45;;;;;;;13.20;12.13;;;27.10;99.90;;;;;;5079688;28;20995;-52
2023/07/24 07:28:13;;;;;;;12.30;11.50;;;27.30;99.90;;;;;;5080456;28;20634;-47
2023/07/24 07:30:40;;;;;;;13.27;12.47;;;27.50;99.90;;;;;;5066666;28;20434;-53
2023/07/24 07:33:05;;;;;;;13.27;12.40;;;27.50;99.90;;;;;;5080338;28;20419;-48
2023/07/24 07:35:35;;;;;;;12.90;12.10;;;27.50;99.90;;;;;;5075779;28;20896;-54
2023/07/24 07:38:01;;;;;;;12.93;12.23;;;27.40;99.90;;;;;;5070685;28;20284;-47
2023/07/24 07:40:27;;;;;;;13.53;12.70;;;27.40;99.90;;;;;;5068279;28;20434;-51
2023/07/24 07:42:53;;;;;;;12.93;12.10;;;27.50;99.90;;;;;;5060898;28;20450;-53
2023/07/24 07:45:19;;;;;;;12.90;12.20;;;27.50;99.90;;;;;;5077195;28;20925;-54
2023/07/24 07:47:45;;;;;;;12.77;12.07;;;27.40;99.90;;;;;;5080170;28;20491;-50
2023/07/24 07:50:11;;;;;;;13.10;12.20;;;27.50;99.90;;;;;;5080199;28;20434;-49
2023/07/24 07:52:37;;;;;;;12.00;11.40;;;27.50;99.90;;;;;;5079669;28;20664;-52
2023/07/24 07:55:02;;;;;;;12.03;11.40;;;27.60;99.90;;;;;;5066849;28;20770;-47
2023/07/24 07:57:28;;;;;;;12.73;11.93;;;27.70;99.90;;;;;;5066487;28;20193;-53
2023/07/24 07:59:53;;;;;;;12.10;11.50;;;27.70;99.90;;;;;;5076571;28;20224;-45
2023/07/24 08:02:19;;;;;;;12.30;11.60;;;27.80;99.90;;;;;;5079870;28;20176;-55
2023/07/24 08:04:45;;;;;;;12.50;11.80;;;27.80;99.90;;;;;;5079767;28;20615;-45
2023/07/24 08:07:10;;;;;;;13.20;12.47;;;27.80;99.90;;;;;;5080070;28;20189;-53
2023/07/24 08:09:38;;;;;;;12.50;11.80;;;27.80;99.90;;;;;;5079847;28;20193;-51
2023/07/24 08:12:04;;;;;;;13.10;12.40;;;27.90;99.90;;;;;;5079515;28;20187;-51
2023/07/24 08:14:30;;;;;;;12.13;11.53;;;28.00;99.90;;;;;;5079932;28;20936;-50
2023/07/24 08:16:56;;;;;;;12.10;11.40;;;28.00;99.90;;;;;;5079305;28;20475;-50
2023/07/24 08:19:21;;;;;;;11.90;11.20;;;28.10;99.90;;;;;;5077859;28;20859;-50
2023/07/24 08:21:47;;;;;;;11.87;11.27;;;28.10;99.90;;;;;;5066991;28;20248;-52
2023/07/24 08:24:13;;;;;;;12.60;11.90;;;28.10;99.90;;;;;;5079389;28;20486;-54
2023/07/24 08:26:39;;;;;;;12.10;11.50;;;28.10;99.90;;;;;;5079632;28;20426;-52
2023/07/24 08:29:05;;;;;;;12.60;11.90;;;28.20;99.90;;;;;;5075788;28;20215;-50
2023/07/24 08:31:31;;;;;;;12.80;12.10;;;28.20;99.90;;;;;;5071045;28;20224;-54
2023/07/24 08:33:56;;;;;;;11.77;11.07;;;28.30;99.90;;;;;;5079672;28;20945;-50
2023/07/24 08:36:22;;;;;;;12.20;11.50;;;28.40;99.90;;;;;;5079338;28;20590;-55
2023/07/24 08:38:48;;;;;;;12.20;11.50;;;28.60;99.90;;;;;;5079112;28;20249;-50
2023/07/24 08:41:14;;;;;;;11.63;11.03;;;28.70;99.90;;;;;;5071267;28;20604;-48
2023/07/24 08:43:43;;;;;;;12.73;12.03;;;28.80;99.90;;;;;;5066829;28;20707;-49
2023/07/24 08:46:09;;;;;;;11.93;11.23;;;29.00;99.90;;;;;;5079277;28;20449;-51
2023/07/24 08:48:39;;;;;;;12.30;11.60;;;29.40;99.90;;;;;;5073927;28;20446;-51
2023/07/24 08:51:10;;;;;;;12.80;12.07;;;29.80;99.90;;;;;;5072776;28;20518;-51
2023/07/24 08:53:38;;;;;;;12.57;11.87;;;30.10;99.90;;;;;;5073867;28;20407;-54
2023/07/24 08:56:05;;;;;;;12.43;11.83;;;30.40;99.90;;;;;;5066669;28;20886;-51
2023/07/24 08:58:30;;;;;;;13.43;12.73;;;30.60;99.90;;;;;;5066713;28;20537;-51
2023/07/24 09:00:57;;;;;;;14.20;13.37;;;30.90;99.90;;;;;;5078057;28;20443;-49
2023/07/24 09:03:22;;;;;;;13.83;13.03;;;31.20;99.90;;;;;;5066248;28;20687;-51
2023/07/24 09:05:48;;;;;;;13.60;12.90;;;31.40;99.90;;;;;;5078906;28;20426;-53
2023/07/24 09:08:14;;;;;;;12.70;12.00;;;31.50;99.90;;;;;;5071470;28;20215;-50
2023/07/24 09:10:40;;;;;;;12.80;12.10;;;31.50;99.90;;;;;;5074553;28;20817;-53
2023/07/24 09:13:07;;;;;;;13.10;12.40;;;31.70;99.90;;;;;;5079317;28;20423;-48
2023/07/24 09:15:44;;;;;;;12.53;11.73;;;31.90;99.90;;;;;;5078806;28;20238;-48
2023/07/24 09:18:11;;;;;;;13.37;12.67;;;32.00;99.90;;;;;;5078452;28;20418;-52
2023/07/24 09:20:41;;;;;;;14.13;13.43;;;32.20;99.90;;;;;;5068470;28;20809;-50
2023/07/24 09:23:11;;;;;;;13.60;12.80;;;32.50;99.90;;;;;;5071994;28;20795;-51
2023/07/24 09:25:40;;;;;;;12.80;12.10;;;32.50;99.90;;;;;;5078648;28;20480;-54
2023/07/24 09:28:17;;;;;;;13.63;12.83;;;32.40;99.90;;;;;;5078519;28;20566;-53
2023/07/24 09:30:52;;;;;;;14.20;13.40;;;32.30;99.90;;;;;;5078529;28;20458;-55
2023/07/24 09:33:17;;;;;;;13.67;12.87;;;32.20;99.90;;;;;;5078448;28;20475;-52
2023/07/24 09:35:43;;;;;;;13.33;12.63;;;32.40;99.90;;;;;;5074821;28;20419;-56
2023/07/24 09:38:10;;;;;;;13.90;13.10;;;32.30;99.90;;;;;;5069307;28;20615;-51
2023/07/24 09:40:45;;;;;;;14.17;13.37;;;32.50;99.90;;;;;;5082863;28;20668;-55
2023/07/24 09:43:17;;;;;;;14.20;13.17;;;32.50;99.90;;;;;;5074578;28;20479;-49
2023/07/24 09:45:44;;;;;;;13.70;12.90;;;32.70;99.90;;;;;;5083076;28;20456;-50
2023/07/24 09:48:14;;;;;;;14.60;13.80;;;32.80;99.90;;;;;;5082735;28;20460;-53
2023/07/24 09:50:45;;;;;;;12.73;11.93;;;33.00;99.90;;;;;;5069630;28;20521;-50
2023/07/24 09:53:36;;;;;;;14.30;13.40;;;32.90;99.90;;;;;;5067558;28;20438;-54
2023/07/24 09:56:04;;;;;;;13.50;12.80;;;32.90;99.90;;;;;;5062657;28;20554;-54
2023/07/24 09:58:32;;;;;;;14.37;13.47;;;32.40;99.90;;;;;;5082109;28;20500;-50
2023/07/24 10:00:58;;;;;;;14.10;13.30;;;32.00;99.90;;;;;;5082163;28;20418;-54
2023/07/24 10:03:24;;;;;;;13.60;12.90;;;31.20;99.90;;;;;;5073225;28;20434;-48
2023/07/24 10:05:50;;;;;;;14.33;13.53;;;30.40;99.90;;;;;;5080821;28;20210;-50
2023/07/24 10:08:17;;;;;;;13.03;12.33;;;30.10;99.90;;;;;;5073785;28;20424;-53
2023/07/24 10:10:43;;;;;;;14.10;13.30;;;29.80;99.90;;;;;;5080146;28;20192;-50
2023/07/24 10:13:12;;;;;;;14.53;13.53;;;29.70;99.90;;;;;;5081866;28;20425;-48
2023/07/24 10:15:39;;;;;;;14.77;13.83;;;29.80;99.90;;;;;;5081889;28;20173;-53
2023/07/24 10:18:07;;;;;;;13.97;13.17;;;29.40;99.90;;;;;;5070874;28;20504;-47
2023/07/24 10:20:38;;;;;;;14.53;13.40;;;29.20;99.90;;;;;;5064295;28;20467;-48
2023/07/24 10:23:06;;;;;;;13.90;13.10;;;28.90;99.90;;;;;;5079853;28;20502;-51
2023/07/24 10:25:33;;;;;;;13.87;13.07;;;28.90;99.90;;;;;;5077440;28;20576;-51
2023/07/24 10:28:07;;;;;;;14.07;13.10;;;28.70;99.90;;;;;;5081634;28;20410;-49
2023/07/24 10:30:33;;;;;;;15.03;14.03;;;28.70;99.90;;;;;;5081501;28;20411;-52
2023/07/24 10:33:08;;;;;;;14.20;13.30;;;28.50;99.90;;;;;;5081923;28;20796;-47
2023/07/24 10:35:44;;;;;;;14.37;13.30;;;28.40;99.90;;;;;;5081727;28;20916;-53
2023/07/24 10:38:11;;;;;;;14.07;13.20;;;28.40;99.90;;;;;;5082034;28;20428;-50
2023/07/24 10:40:37;;;;;;;15.10;14.10;;;28.20;99.90;;;;;;5081767;28;20484;-51
2023/07/24 10:43:20;;;;;;;15.27;14.37;;;28.10;99.90;;;;;;5080445;28;20712;-48
2023/07/24 10:45:51;;;;;;;15.60;14.57;;;27.30;99.90;;;;;;5075118;28;20937;-48
2023/07/24 10:48:18;;;;;;;14.70;13.80;;;27.00;99.90;;;;;;5074151;28;20430;-50
2023/07/24 10:50:45;;;;;;;15.20;14.30;;;26.70;99.90;;;;;;5067753;28;20446;-48
2023/07/24 10:53:13;;;;;;;16.07;15.07;;;26.60;99.90;;;;;;5067237;28;20511;-50
2023/07/24 10:55:39;;;;;;;15.43;14.43;;;26.30;99.90;;;;;;5081293;28;20414;-48
2023/07/24 10:58:06;;;;;;;14.90;13.90;;;26.00;99.90;;;;;;5081073;28;20433;-51
2023/07/24 11:00:31;;;;;;;14.60;13.70;;;26.00;99.90;;;;;;5080920;28;20180;-52
2023/07/24 11:02:57;;;;;;;15.17;14.20;;;26.00;99.90;;;;;;5081072;28;20920;-50
2023/07/24 11:05:23;;;;;;;16.30;15.13;;;26.00;99.90;;;;;;5080507;28;20651;-48
2023/07/24 11:07:49;;;;;;;15.57;14.47;;;26.10;99.90;;;;;;5076583;28;20173;-48
2023/07/24 11:10:16;;;;;;;15.73;14.73;;;26.10;99.90;;;;;;5077082;28;20470;-51
2023/07/24 11:12:42;;;;;;;15.13;14.13;;;26.10;99.90;;;;;;5079280;28;20270;-54
2023/07/24 11:15:08;;;;;;;15.60;14.50;;;26.20;99.90;;;;;;5078698;28;20898;-52
2023/07/24 11:17:40;;;;;;;14.47;13.57;;;26.40;99.90;;;;;;5070398;28;20199;-50
2023/07/24 11:20:13;;;;;;;15.50;14.50;;;26.70;99.90;;;;;;5073708;28;20462;-51
2023/07/24 11:22:40;;;;;;;15.80;14.60;;;27.20;99.90;;;;;;5072335;28;20474;-48
2023/07/24 11:25:06;;;;;;;16.80;15.37;;;27.80;99.90;;;;;;5066912;28;20481;-51
2023/07/24 11:27:32;;;;;;;16.20;15.10;;;27.80;99.90;;;;;;5074928;28;20905;-53
2023/07/24 11:29:58;;;;;;;15.73;14.53;;;28.00;99.90;;;;;;5066803;28;20943;-47
2023/07/24 11:32:24;;;;;;;16.40;15.20;;;28.00;99.90;;;;;;5080322;28;20829;-55
2023/07/24 11:34:51;;;;;;;15.90;14.77;;;28.00;99.90;;;;;;5078777;28;20279;-48
2023/07/24 11:37:18;;;;;;;15.57;14.57;;;27.60;99.90;;;;;;5080410;28;20598;-49
2023/07/24 11:40:03;;;;;;;15.10;14.20;;;27.50;99.90;;;;;;5080466;28;20503;-45
2023/07/24 11:42:29;;;;;;;15.60;14.50;;;27.50;99.90;;;;;;5094411;27;20985;-52
2023/07/24 11:44:54;;;;;;;16.13;14.93;;;27.60;99.90;;;;;;5080173;28;20414;-45
2023/07/24 11:47:20;;;;;;;15.07;14.10;;;27.90;99.90;;;;;;5065711;28;20190;-51
2023/07/24 11:49:57;;;;;;;15.17;14.17;;;28.00;99.90;;;;;;5061885;28;20173;-53
2023/07/24 11:52:22;;;;;;;15.47;14.57;;;28.00;99.90;;;;;;5075069;28;20574;-45
2023/07/24 11:55:01;;;;;;;15.17;14.17;;;28.00;99.90;;;;;;5072027;28;20475;-51
2023/07/24 11:57:28;;;;;;;14.80;13.90;;;28.20;99.90;;;;;;5078645;28;20537;-53
2023/07/24 11:59:54;;;;;;;15.73;14.73;;;28.40;99.90;;;;;;5078156;28;21044;-49
2023/07/24 12:02:19;;;;;;;15.30;14.10;;;28.50;99.90;;;;;;5068920;28;20427;-52
2023/07/24 12:04:45;;;;;;;14.77;13.77;;;28.30;99.90;;;;;;5080219;28;20176;-49
2023/07/24 12:07:12;;;;;;;14.63;13.63;;;28.10;99.90;;;;;;5079702;28;20678;-53
2023/07/24 12:09:38;;;;;;;16.03;14.83;;;28.10;99.90;;;;;;5069369;28;20602;-53
2023/07/24 12:12:05;;;;;;;16.27;15.17;;;28.20;99.90;;;;;;5079820;28;20464;-54
2023/07/24 12:14:30;;;;;;;15.70;14.70;;;28.00;99.90;;;;;;5079875;28;20178;-54
2023/07/24 12:17:09;;;;;;;15.50;14.50;;;28.10;99.90;;;;;;5079930;28;20430;-48
2023/07/24 12:19:36;;;;;;;15.63;14.60;;;28.00;99.90;;;;;;5070261;28;20294;-56
2023/07/24 12:22:03;;;;;;;16.43;15.23;;;27.70;99.90;;;;;;5079437;28;20455;-48
2023/07/24 12:24:29;;;;;;;16.80;15.67;;;27.70;99.90;;;;;;5072638;28;20966;-53
2023/07/24 12:26:55;;;;;;;15.47;13.97;;;27.70;99.90;;;;;;5077830;28;20494;-51